Time;durP1;ratioP1;P1;durP2;ratioP2;P2;SDS_P1;SDS_P2;PMS_P1;PMS_P2;Temp;Humidity;BMP_temperature;BMP_pressure;BME280_temperature;BME280_humidity;BME280_pressure;Samples;Min_cycle;Max_cycle;Signal;HPM_P1;HPM_P2
2021/10/17 17:12:26;;;;;;;7.30;3.47;;;12.10;72.50;;;;;;5062686;27;20465;-76
2021/10/17 17:14:53;;;;;;;6.03;4.15;;;12.00;74.40;;;;;;5059834;28;20021;-76
2021/10/17 17:17:19;;;;;;;4.90;3.33;;;12.10;76.50;;;;;;5057430;28;20032;-76
2021/10/17 17:19:45;;;;;;;5.55;3.72;;;12.20;77.60;;;;;;5064525;28;20030;-75
2021/10/17 17:22:10;;;;;;;7.45;3.83;;;12.40;77.70;;;;;;5057121;28;20029;-76
2021/10/17 17:24:36;;;;;;;6.28;4.72;;;12.60;77.70;;;;;;5070909;28;20024;-75
2021/10/17 17:27:02;;;;;;;6.70;4.43;;;12.70;77.20;;;;;;5062022;28;20021;-75
2021/10/17 17:29:28;;;;;;;6.50;4.50;;;12.80;76.90;;;;;;5058297;28;20032;-74
2021/10/17 17:31:53;;;;;;;5.82;4.30;;;13.00;76.50;;;;;;5063351;28;20036;-75
2021/10/17 17:34:19;;;;;;;6.45;4.15;;;13.10;75.60;;;;;;5061689;28;20028;-75
2021/10/17 17:36:45;;;;;;;4.38;3.55;;;13.20;75.30;;;;;;5071475;28;20035;-75
2021/10/17 17:39:10;;;;;;;11.25;4.55;;;13.30;75.00;;;;;;5064281;28;20554;-75
2021/10/17 17:41:37;;;;;;;5.10;3.80;;;13.40;74.60;;;;;;5062230;28;20033;-73
2021/10/17 17:44:03;;;;;;;8.18;4.70;;;13.40;74.30;;;;;;5064562;28;20029;-74
2021/10/17 17:46:29;;;;;;;5.68;4.15;;;13.40;74.30;;;;;;5064308;28;20458;-75
2021/10/17 17:48:54;;;;;;;10.82;5.30;;;13.50;73.20;;;;;;5064364;28;20033;-75
2021/10/17 17:51:20;;;;;;;5.90;3.80;;;13.50;73.10;;;;;;5062155;28;20044;-74
2021/10/17 17:53:45;;;;;;;4.60;3.50;;;13.50;73.20;;;;;;5064684;28;20096;-73
2021/10/17 17:56:11;;;;;;;8.00;5.00;;;13.60;73.20;;;;;;5065573;28;20063;-76
2021/10/17 17:58:36;;;;;;;5.72;4.20;;;13.60;72.80;;;;;;5069195;28;20027;-76
2021/10/17 18:01:02;;;;;;;5.30;3.92;;;13.60;73.30;;;;;;5064924;28;20033;-77
2021/10/17 18:03:28;;;;;;;7.68;4.60;;;13.60;72.70;;;;;;5068472;28;20074;-77
2021/10/17 18:05:54;;;;;;;10.90;6.05;;;13.60;72.50;;;;;;5064643;28;20119;-75
2021/10/17 18:08:20;;;;;;;8.38;5.68;;;13.70;72.40;;;;;;5070354;28;20780;-75
2021/10/17 18:10:45;;;;;;;7.25;4.88;;;13.70;72.30;;;;;;5065345;28;20040;-75
2021/10/17 18:13:11;;;;;;;11.23;7.85;;;13.70;72.40;;;;;;5063936;28;20017;-76
2021/10/17 18:15:39;;;;;;;9.10;6.55;;;13.70;71.90;;;;;;5061346;28;20029;-77
2021/10/17 18:18:05;;;;;;;7.63;5.30;;;13.70;71.90;;;;;;5066869;28;20020;-76
2021/10/17 18:20:31;;;;;;;10.30;6.18;;;13.70;72.70;;;;;;5065505;28;20536;-76
2021/10/17 18:22:56;;;;;;;9.90;6.82;;;13.70;71.90;;;;;;5054914;28;20040;-76
2021/10/17 18:25:22;;;;;;;7.80;5.65;;;13.70;71.50;;;;;;5050308;28;20049;-75
2021/10/17 18:27:48;;;;;;;8.50;5.53;;;13.70;71.30;;;;;;5050607;28;20036;-76
2021/10/17 18:30:14;;;;;;;6.80;4.85;;;13.70;71.20;;;;;;5055543;28;20442;-75
2021/10/17 18:32:40;;;;;;;6.97;4.80;;;13.60;71.10;;;;;;5049883;28;20475;-75
2021/10/17 18:35:06;;;;;;;5.60;4.53;;;13.70;71.30;;;;;;5051364;28;20067;-76
2021/10/17 18:37:31;;;;;;;7.78;5.38;;;13.70;71.20;;;;;;5054528;28;20031;-76
2021/10/17 18:39:57;;;;;;;7.55;4.57;;;13.80;71.20;;;;;;5053751;28;20033;-76
2021/10/17 18:42:22;;;;;;;7.00;5.00;;;13.80;71.20;;;;;;5052913;28;20061;-76
2021/10/17 18:44:48;;;;;;;6.15;4.78;;;13.80;71.00;;;;;;5050197;28;20100;-76
2021/10/17 18:47:13;;;;;;;7.53;5.90;;;13.80;71.00;;;;;;5047914;28;20489;-76
2021/10/17 18:49:39;;;;;;;14.50;11.93;;;13.70;70.70;;;;;;5044570;28;20075;-76
2021/10/17 18:52:06;;;;;;;5.88;4.25;;;13.80;70.80;;;;;;5051698;28;20495;-76
2021/10/17 18:54:32;;;;;;;8.13;5.10;;;13.80;70.90;;;;;;5048576;28;20029;-77
2021/10/17 18:56:57;;;;;;;7.03;5.03;;;13.80;70.80;;;;;;5052768;28;20468;-76
2021/10/17 18:59:23;;;;;;;7.55;4.95;;;13.80;70.60;;;;;;5047819;28;20062;-75
2021/10/17 19:01:48;;;;;;;6.43;4.43;;;13.80;70.70;;;;;;5050338;28;20372;-77
2021/10/17 19:04:14;;;;;;;12.98;10.48;;;13.80;70.50;;;;;;5061205;28;20020;-76
2021/10/17 19:06:40;;;;;;;12.70;7.93;;;13.70;70.10;;;;;;5047582;28;20493;-76
2021/10/17 19:09:06;;;;;;;6.95;5.68;;;13.70;69.70;;;;;;5050061;28;20529;-75
2021/10/17 19:11:32;;;;;;;9.27;5.93;;;13.60;69.70;;;;;;5049935;28;20037;-76
2021/10/17 19:13:57;;;;;;;9.32;5.63;;;13.50;69.60;;;;;;5045083;28;20035;-77
2021/10/17 19:16:23;;;;;;;8.80;5.82;;;13.50;69.80;;;;;;5040909;28;20025;-77
2021/10/17 19:18:48;;;;;;;7.43;4.50;;;13.50;70.00;;;;;;5046217;28;20506;-77
2021/10/17 19:21:15;;;;;;;6.53;4.60;;;13.50;70.20;;;;;;5045013;28;20029;-76
2021/10/17 19:23:41;;;;;;;6.75;4.40;;;13.50;70.30;;;;;;5050443;28;20545;-77
2021/10/17 19:26:07;;;;;;;6.75;5.15;;;13.50;70.30;;;;;;5046948;28;20033;-77
2021/10/17 19:28:32;;;;;;;6.40;4.55;;;13.50;70.20;;;;;;5043448;28;20022;-77
2021/10/17 19:30:58;;;;;;;7.70;5.05;;;13.50;70.40;;;;;;5049753;28;20099;-74
2021/10/17 19:33:23;;;;;;;5.53;4.40;;;13.50;70.40;;;;;;5043511;28;20021;-74
2021/10/17 19:35:50;;;;;;;5.25;3.80;;;13.50;70.50;;;;;;5049073;28;20121;-75
2021/10/17 19:38:16;;;;;;;5.85;4.03;;;13.50;70.60;;;;;;5048510;28;20035;-74
2021/10/17 19:40:41;;;;;;;6.85;4.55;;;13.60;70.70;;;;;;5042729;28;20466;-74
2021/10/17 19:43:07;;;;;;;7.13;4.85;;;13.60;70.70;;;;;;5046515;28;20632;-74
2021/10/17 19:45:33;;;;;;;5.50;3.70;;;13.60;70.60;;;;;;5043750;28;20035;-76
2021/10/17 19:47:58;;;;;;;6.65;5.22;;;13.60;70.70;;;;;;5051249;28;20029;-77
2021/10/17 19:50:24;;;;;;;6.97;4.40;;;13.60;70.70;;;;;;5049155;28;21055;-76
2021/10/17 19:52:51;;;;;;;5.60;4.28;;;13.70;70.90;;;;;;5041743;28;20127;-76
2021/10/17 19:55:18;;;;;;;4.85;3.88;;;13.60;70.80;;;;;;5044880;28;20116;-76
2021/10/17 19:57:44;;;;;;;6.68;4.90;;;13.70;70.80;;;;;;5043829;28;20056;-74
2021/10/17 20:00:12;;;;;;;17.95;13.60;;;13.70;70.60;;;;;;5048627;28;20036;-73
2021/10/17 20:02:38;;;;;;;31.83;20.52;;;13.60;70.60;;;;;;5045749;28;20108;-74
2021/10/17 20:05:04;;;;;;;15.98;11.68;;;13.60;70.60;;;;;;5042552;28;20020;-74
2021/10/17 20:07:33;;;;;;;13.52;8.85;;;13.60;70.60;;;;;;5040572;28;20029;-75
2021/10/17 20:09:59;;;;;;;9.38;6.75;;;13.60;70.60;;;;;;5038395;28;20581;-79
2021/10/17 20:12:25;;;;;;;8.63;6.00;;;13.60;71.00;;;;;;5045857;28;20080;-76
2021/10/17 20:14:50;;;;;;;8.38;6.25;;;13.60;70.40;;;;;;5044461;28;20025;-75
2021/10/17 20:17:16;;;;;;;8.35;5.70;;;13.60;70.30;;;;;;5050283;28;20503;-76
2021/10/17 20:19:42;;;;;;;8.73;5.15;;;13.50;70.40;;;;;;5044072;28;20071;-76
2021/10/17 20:22:07;;;;;;;6.82;4.88;;;13.50;70.40;;;;;;5049975;28;20104;-76
2021/10/17 20:24:33;;;;;;;7.47;4.75;;;13.50;70.50;;;;;;5050408;28;20029;-75
2021/10/17 20:26:59;;;;;;;6.03;4.38;;;13.50;70.50;;;;;;5053508;28;20025;-76
2021/10/17 20:29:24;;;;;;;8.07;4.97;;;13.50;70.60;;;;;;5043795;28;20020;-76
2021/10/17 20:31:50;;;;;;;7.00;5.10;;;13.50;70.60;;;;;;5042637;28;20047;-75
2021/10/17 20:34:18;;;;;;;8.77;5.63;;;13.40;70.80;;;;;;5048695;28;20029;-76
2021/10/17 20:36:47;;;;;;;7.07;5.25;;;13.40;70.80;;;;;;5042883;28;20683;-76
2021/10/17 20:39:24;;;;;;;7.53;5.80;;;13.40;70.80;;;;;;5047811;28;20025;-77
2021/10/17 20:42:04;;;;;;;7.80;5.45;;;13.30;70.70;;;;;;5043086;28;20021;-76
2021/10/17 20:44:31;;;;;;;8.60;6.15;;;13.30;70.70;;;;;;5046560;28;20031;-76
2021/10/17 20:46:56;;;;;;;8.27;5.72;;;13.30;70.90;;;;;;5043356;28;20618;-76
2021/10/17 20:49:22;;;;;;;8.70;6.50;;;13.20;71.00;;;;;;5049037;28;20029;-75
2021/10/17 20:51:49;;;;;;;6.70;4.78;;;13.20;71.10;;;;;;5042947;28;20064;-76
2021/10/17 20:54:16;;;;;;;5.35;4.13;;;13.20;71.20;;;;;;5042862;28;20032;-77
2021/10/17 20:56:41;;;;;;;6.72;4.65;;;13.20;71.40;;;;;;5042763;28;20021;-76
2021/10/17 20:59:07;;;;;;;4.88;4.00;;;13.20;71.40;;;;;;5047876;28;20044;-77
2021/10/17 21:01:33;;;;;;;5.57;4.07;;;13.20;71.50;;;;;;5051088;28;20090;-75
2021/10/17 21:03:59;;;;;;;5.45;4.07;;;13.20;71.60;;;;;;5047219;28;20023;-75
2021/10/17 21:06:25;;;;;;;4.40;3.42;;;13.20;71.60;;;;;;5055140;28;20487;-76
2021/10/17 21:08:54;;;;;;;5.43;4.50;;;13.20;71.60;;;;;;5038606;28;20053;-75
2021/10/17 21:11:21;;;;;;;5.05;3.72;;;13.20;71.60;;;;;;5045563;28;20041;-76
2021/10/17 21:13:47;;;;;;;4.78;3.53;;;13.20;71.70;;;;;;5045047;28;20036;-76
2021/10/17 21:16:13;;;;;;;6.50;4.25;;;13.30;71.80;;;;;;5047735;28;20029;-74
2021/10/17 21:18:39;;;;;;;7.05;4.57;;;13.30;71.80;;;;;;5048408;28;20059;-75
2021/10/17 21:21:05;;;;;;;6.43;4.30;;;13.20;71.80;;;;;;5037732;28;20026;-76
2021/10/17 21:23:31;;;;;;;5.30;4.18;;;13.20;72.00;;;;;;5046858;28;20029;-76
2021/10/17 21:25:57;;;;;;;6.82;4.85;;;13.20;72.10;;;;;;5046011;28;20024;-75
2021/10/17 21:28:22;;;;;;;7.65;5.50;;;13.10;72.10;;;;;;5048360;28;20025;-74
2021/10/17 21:30:48;;;;;;;7.13;5.60;;;13.10;72.10;;;;;;5043437;28;20039;-74
2021/10/17 21:33:13;;;;;;;7.70;5.15;;;13.00;72.20;;;;;;5039019;28;20091;-74
2021/10/17 21:35:39;;;;;;;7.13;4.45;;;13.00;72.40;;;;;;5044858;28;20036;-74
2021/10/17 21:38:05;;;;;;;7.03;4.53;;;13.00;72.60;;;;;;5044085;28;20036;-77
2021/10/17 21:40:30;;;;;;;6.13;4.55;;;13.00;72.50;;;;;;5043998;28;20063;-76
2021/10/17 21:42:56;;;;;;;6.90;4.57;;;13.00;72.60;;;;;;5049726;28;20175;-75
2021/10/17 21:45:22;;;;;;;5.82;4.20;;;13.00;72.70;;;;;;5055909;28;20031;-73
2021/10/17 21:47:47;;;;;;;5.75;4.03;;;13.00;72.70;;;;;;5052755;28;20086;-75
2021/10/17 21:50:13;;;;;;;5.88;4.30;;;13.00;72.70;;;;;;5049610;28;20104;-76
2021/10/17 21:52:38;;;;;;;5.43;4.20;;;13.10;72.70;;;;;;5050565;28;20102;-76
2021/10/17 21:55:05;;;;;;;3.78;3.40;;;13.10;72.70;;;;;;5051402;28;20075;-76
2021/10/17 21:57:30;;;;;;;5.05;3.67;;;13.10;72.70;;;;;;5047871;28;20029;-77
2021/10/17 21:59:56;;;;;;;6.97;4.93;;;13.10;72.80;;;;;;5042336;28;20035;-79
2021/10/17 22:02:21;;;;;;;6.35;4.70;;;13.00;72.80;;;;;;5044101;28;20053;-76
2021/10/17 22:04:47;;;;;;;5.47;4.20;;;13.00;72.90;;;;;;5057557;28;20122;-78
2021/10/17 22:07:12;;;;;;;5.25;4.20;;;13.00;73.00;;;;;;5054636;28;20040;-78
2021/10/17 22:09:38;;;;;;;6.15;4.07;;;13.00;73.00;;;;;;5048309;28;20142;-77
2021/10/17 22:12:03;;;;;;;8.10;5.68;;;13.00;73.00;;;;;;5042634;28;20403;-78
2021/10/17 22:14:29;;;;;;;6.97;4.78;;;13.00;72.90;;;;;;5061314;28;20120;-78
2021/10/17 22:16:54;;;;;;;6.70;4.78;;;13.00;73.00;;;;;;5051751;28;20029;-78
2021/10/17 22:19:20;;;;;;;7.85;5.30;;;13.00;73.10;;;;;;5064026;28;20029;-78
2021/10/17 22:21:46;;;;;;;7.40;6.00;;;13.00;73.10;;;;;;5058785;28;20016;-79
2021/10/17 22:24:11;;;;;;;6.03;4.57;;;12.90;73.10;;;;;;5055489;28;20047;-79
2021/10/17 22:26:37;;;;;;;8.07;6.47;;;12.90;73.20;;;;;;5047887;28;20029;-77
2021/10/17 22:29:04;;;;;;;8.55;5.70;;;12.90;73.10;;;;;;5048978;28;20072;-76
2021/10/17 22:31:30;;;;;;;8.50;5.70;;;12.90;73.20;;;;;;5041466;28;20033;-76
2021/10/17 22:33:55;;;;;;;9.48;6.70;;;12.90;73.20;;;;;;5049121;28;20045;-76
2021/10/17 22:36:21;;;;;;;8.05;5.93;;;12.90;73.20;;;;;;5048071;28;20064;-77
2021/10/17 22:38:46;;;;;;;9.57;6.90;;;12.80;73.20;;;;;;5053303;28;20055;-76
2021/10/17 22:41:12;;;;;;;8.43;6.60;;;12.80;73.30;;;;;;5049768;28;20021;-77
2021/10/17 22:43:38;;;;;;;8.00;5.10;;;12.70;73.20;;;;;;5051208;28;20037;-77
2021/10/17 22:46:03;;;;;;;7.93;6.38;;;12.70;73.30;;;;;;5049316;28;20028;-77
2021/10/17 22:48:29;;;;;;;8.30;5.95;;;12.80;73.40;;;;;;5057243;28;20435;-77
2021/10/17 22:50:55;;;;;;;9.20;6.00;;;12.70;73.40;;;;;;5049124;28;20021;-76
2021/10/17 22:53:21;;;;;;;8.43;6.30;;;12.70;73.40;;;;;;5036622;28;20041;-76
2021/10/17 22:55:47;;;;;;;7.90;6.28;;;12.70;73.40;;;;;;5051532;28;20026;-77
2021/10/17 22:58:12;;;;;;;7.15;5.20;;;12.70;73.50;;;;;;5053354;28;20382;-77
2021/10/17 23:00:39;;;;;;;6.20;5.18;;;12.70;73.50;;;;;;5051564;28;20658;-77
2021/10/17 23:03:05;;;;;;;6.15;4.53;;;12.70;73.60;;;;;;5047978;28;20164;-77
2021/10/17 23:05:31;;;;;;;7.72;5.38;;;12.70;73.60;;;;;;5052283;28;20102;-79
2021/10/17 23:07:57;;;;;;;8.60;5.55;;;12.70;73.50;;;;;;5057864;28;20102;-79
2021/10/17 23:10:22;;;;;;;9.15;6.13;;;12.70;73.50;;;;;;5054876;28;20109;-80
2021/10/17 23:12:48;;;;;;;8.77;6.28;;;12.70;73.50;;;;;;5053444;28;20022;-80
2021/10/17 23:15:16;;;;;;;9.20;6.63;;;12.70;73.60;;;;;;5050394;28;20647;-80
2021/10/17 23:17:42;;;;;;;7.00;5.25;;;12.70;73.60;;;;;;5040713;28;20025;-79
2021/10/17 23:20:10;;;;;;;7.63;5.70;;;12.70;73.80;;;;;;5053067;28;20028;-79
2021/10/17 23:22:36;;;;;;;9.43;6.13;;;12.70;73.80;;;;;;5051199;28;20151;-79
2021/10/17 23:25:02;;;;;;;9.57;7.38;;;12.70;73.80;;;;;;5050547;28;20127;-79
2021/10/17 23:27:27;;;;;;;8.98;7.10;;;12.70;73.80;;;;;;5043959;28;20029;-79
2021/10/17 23:29:53;;;;;;;8.30;6.40;;;12.60;73.90;;;;;;5044407;28;20020;-79
2021/10/17 23:32:18;;;;;;;9.68;6.35;;;12.60;74.00;;;;;;5047927;28;20415;-76
2021/10/17 23:34:44;;;;;;;8.32;5.35;;;12.60;74.10;;;;;;5049117;28;20028;-77
2021/10/17 23:37:09;;;;;;;7.28;5.70;;;12.60;74.20;;;;;;5050036;28;20036;-79
2021/10/17 23:39:35;;;;;;;7.65;5.70;;;12.60;74.10;;;;;;5048291;28;20025;-80
2021/10/17 23:42:01;;;;;;;7.55;5.68;;;12.60;74.00;;;;;;5048811;28;20028;-79
2021/10/17 23:44:26;;;;;;;5.90;4.70;;;12.60;74.00;;;;;;5048602;28;20021;-79
2021/10/17 23:46:52;;;;;;;6.43;4.60;;;12.70;74.00;;;;;;5050071;28;20031;-80
2021/10/17 23:49:18;;;;;;;4.88;4.20;;;12.70;73.90;;;;;;5044197;28;20021;-79
2021/10/17 23:51:43;;;;;;;6.47;4.15;;;12.70;73.90;;;;;;5049340;28;20052;-80
2021/10/17 23:54:09;;;;;;;6.32;4.80;;;12.80;73.90;;;;;;5050165;28;20036;-78
2021/10/17 23:56:34;;;;;;;6.65;5.90;;;12.70;73.70;;;;;;5049275;28;20071;-78
2021/10/17 23:59:00;;;;;;;7.82;5.55;;;12.70;73.40;;;;;;5051263;28;20071;-78
